N166RB KAVL-KDZJ
Flight info
| Callsign | N166RB |
|---|---|
| Flight time | N/A |
| Altitude | 8000 |
| Route | FREEZ |
| Aircraft | C172/L-V/N |
Departure
| Time | 2026-04-26 22:36 |
|---|---|
| Airport | Asheville Regional Airport (KAVL) |
Arrival
| Time | N/A |
|---|---|
| Airport | Blairsville Airport (KDZJ) |
| Time | Latitude | Longitude | Altitude | Speed | Heading |
|---|---|---|---|---|---|
| 2026-04-26 22:20 | 35.44327 | -82.54267 | 2156 ft | 0 kts | 160° |
| 2026-04-26 22:31 | 35.44313 | -82.54257 | 2157 ft | 4 kts | 144° |
| 2026-04-26 22:31 | 35.44271 | -82.54271 | 2157 ft | 10 kts | 245° |
| 2026-04-26 22:32 | 35.44259 | -82.54308 | 2157 ft | 6 kts | 253° |
| 2026-04-26 22:32 | 35.44310 | -82.54376 | 2156 ft | 17 kts | 340° |
| 2026-04-26 22:32 | 35.44442 | -82.54436 | 2153 ft | 23 kts | 340° |
| 2026-04-26 22:32 | 35.44612 | -82.54511 | 2148 ft | 25 kts | 339° |
| 2026-04-26 22:33 | 35.44664 | -82.54568 | 2145 ft | 3 kts | 255° |
| 2026-04-26 22:33 | 35.44664 | -82.54569 | 2145 ft | 0 kts | 252° |
| 2026-04-26 22:34 | 35.44653 | -82.54602 | 2145 ft | 8 kts | 248° |
| 2026-04-26 22:34 | 35.44613 | -82.54648 | 2145 ft | 9 kts | 172° |
| 2026-04-26 22:34 | 35.44465 | -82.54588 | 2150 ft | 42 kts | 160° |
| 2026-04-26 22:34 | 35.44096 | -82.54431 | 2205 ft | 62 kts | 162° |
| 2026-04-26 22:35 | 35.43661 | -82.54282 | 2314 ft | 66 kts | 164° |
| 2026-04-26 22:35 | 35.43205 | -82.54186 | 2452 ft | 67 kts | 171° |
| 2026-04-26 22:35 | 35.42776 | -82.54046 | 2621 ft | 61 kts | 155° |
| 2026-04-26 22:35 | 35.42341 | -82.53915 | 2720 ft | 68 kts | 167° |
| 2026-04-26 22:36 | 35.41846 | -82.53795 | 2814 ft | 73 kts | 167° |
| 2026-04-26 22:36 | 35.41375 | -82.53664 | 2966 ft | 70 kts | 160° |
| 2026-04-26 22:36 | 35.40895 | -82.53493 | 3099 ft | 70 kts | 161° |
| 2026-04-26 22:36 | 35.40407 | -82.53365 | 3215 ft | 73 kts | 165° |
| 2026-04-26 22:37 | 35.39914 | -82.53239 | 3359 ft | 72 kts | 160° |
| 2026-04-26 22:37 | 35.39403 | -82.53160 | 3504 ft | 74 kts | 170° |
| 2026-04-26 22:37 | 35.38912 | -82.53033 | 3643 ft | 74 kts | 157° |
| 2026-04-26 22:37 | 35.38415 | -82.52869 | 3798 ft | 73 kts | 160° |
| 2026-04-26 22:38 | 35.37906 | -82.52754 | 3934 ft | 75 kts | 162° |
| 2026-04-26 22:38 | 35.37392 | -82.52640 | 4080 ft | 75 kts | 164° |
| 2026-04-26 22:38 | 35.36865 | -82.52532 | 4225 ft | 75 kts | 159° |
| 2026-04-26 22:38 | 35.36364 | -82.52382 | 4374 ft | 75 kts | 161° |
| 2026-04-26 22:39 | 35.35835 | -82.52322 | 4513 ft | 76 kts | 166° |
| 2026-04-26 22:39 | 35.35305 | -82.52217 | 4653 ft | 77 kts | 161° |
| 2026-04-26 22:39 | 35.34788 | -82.52091 | 4806 ft | 76 kts | 161° |
| 2026-04-26 22:39 | 35.34253 | -82.51979 | 4936 ft | 78 kts | 162° |
| 2026-04-26 22:40 | 35.33717 | -82.51874 | 5066 ft | 80 kts | 165° |
| 2026-04-26 22:40 | 35.33168 | -82.51776 | 5220 ft | 79 kts | 164° |
| 2026-04-26 22:40 | 35.32613 | -82.51656 | 5353 ft | 80 kts | 161° |
| 2026-04-26 22:40 | 35.32070 | -82.51523 | 5488 ft | 81 kts | 161° |
| 2026-04-26 22:41 | 35.31519 | -82.51389 | 5634 ft | 80 kts | 161° |
| 2026-04-26 22:41 | 35.30962 | -82.51243 | 5768 ft | 81 kts | 160° |
| 2026-04-26 22:41 | 35.30402 | -82.51091 | 5907 ft | 83 kts | 165° |
| 2026-04-26 22:41 | 35.29825 | -82.51052 | 6038 ft | 88 kts | 187° |
| 2026-04-26 22:42 | 35.29255 | -82.51383 | 6197 ft | 86 kts | 205° |
| 2026-04-26 22:42 | 35.28717 | -82.51729 | 6301 ft | 92 kts | 203° |
| 2026-04-26 22:42 | 35.28153 | -82.52026 | 6468 ft | 87 kts | 194° |
| 2026-04-26 22:42 | 35.27557 | -82.52284 | 6575 ft | 91 kts | 197° |
| 2026-04-26 22:43 | 35.26973 | -82.52557 | 6734 ft | 89 kts | 194° |
| 2026-04-26 22:43 | 35.26394 | -82.52815 | 6855 ft | 90 kts | 193° |
| 2026-04-26 22:43 | 35.25800 | -82.53085 | 6978 ft | 92 kts | 194° |
| 2026-04-26 22:43 | 35.25193 | -82.53376 | 7103 ft | 93 kts | 193° |
| 2026-04-26 22:44 | 35.24572 | -82.53593 | 7222 ft | 94 kts | 188° |
| 2026-04-26 22:44 | 35.23950 | -82.53895 | 7341 ft | 97 kts | 198° |
| 2026-04-26 22:44 | 35.23334 | -82.54252 | 7466 ft | 98 kts | 199° |
| 2026-04-26 22:44 | 35.22716 | -82.54607 | 7589 ft | 98 kts | 198° |
| 2026-04-26 22:45 | 35.22095 | -82.54950 | 7713 ft | 99 kts | 197° |
| 2026-04-26 22:45 | 35.21462 | -82.55288 | 7838 ft | 99 kts | 197° |
| 2026-04-26 22:45 | 35.20849 | -82.55709 | 7948 ft | 102 kts | 205° |
| 2026-04-26 22:45 | 35.20350 | -82.56377 | 7969 ft | 114 kts | 244° |
| 2026-04-26 22:46 | 35.20155 | -82.57338 | 7975 ft | 117 kts | 265° |
| 2026-04-26 22:46 | 35.20062 | -82.58333 | 7975 ft | 118 kts | 266° |
| 2026-04-26 22:46 | 35.19938 | -82.59328 | 7978 ft | 119 kts | 262° |
| 2026-04-26 22:46 | 35.19768 | -82.60316 | 7987 ft | 120 kts | 259° |
| 2026-04-26 22:47 | 35.19562 | -82.61320 | 7988 ft | 122 kts | 257° |
| 2026-04-26 22:47 | 35.19337 | -82.62325 | 7982 ft | 123 kts | 256° |
| 2026-04-26 22:47 | 35.19099 | -82.63345 | 7978 ft | 124 kts | 256° |
| 2026-04-26 22:47 | 35.18858 | -82.64357 | 7972 ft | 124 kts | 256° |
| 2026-04-26 22:48 | 35.18618 | -82.65356 | 7972 ft | 123 kts | 255° |
| 2026-04-26 22:48 | 35.18374 | -82.66367 | 7968 ft | 123 kts | 255° |
| 2026-04-26 22:48 | 35.18145 | -82.67359 | 7971 ft | 121 kts | 255° |
| 2026-04-26 22:48 | 35.17930 | -82.68325 | 7971 ft | 114 kts | 256° |
| 2026-04-26 22:49 | 35.17696 | -82.69267 | 7977 ft | 116 kts | 253° |
| 2026-04-26 22:49 | 35.17455 | -82.70222 | 7978 ft | 118 kts | 253° |
| 2026-04-26 22:49 | 35.17215 | -82.71185 | 7978 ft | 119 kts | 254° |
| 2026-04-26 22:49 | 35.16978 | -82.72154 | 7984 ft | 120 kts | 254° |
| 2026-04-26 22:50 | 35.16738 | -82.73143 | 7981 ft | 121 kts | 254° |
| 2026-04-26 22:50 | 35.16499 | -82.74133 | 7982 ft | 121 kts | 254° |
| 2026-04-26 22:50 | 35.16261 | -82.75119 | 7980 ft | 121 kts | 254° |
| 2026-04-26 22:50 | 35.16022 | -82.76110 | 7983 ft | 121 kts | 254° |
| 2026-04-26 22:51 | 35.15783 | -82.77097 | 7983 ft | 121 kts | 255° |
| 2026-04-26 22:51 | 35.15543 | -82.77775 | 7385 ft | 75 kts | 310° |
| 2026-04-26 22:51 | 35.15495 | -82.77895 | 5385 ft | 78 kts | 317° |
| 2026-04-26 22:51 | 35.15058 | -82.78407 | 4210 ft | 130 kts | 236° |
| 2026-04-26 22:52 | 35.15337 | -82.79071 | 4199 ft | 104 kts | 5° |
| 2026-04-26 22:52 | 35.15951 | -82.78754 | 4001 ft | 107 kts | 14° |
| 2026-04-26 22:52 | 35.16715 | -82.78915 | 3860 ft | 101 kts | 348° |
| 2026-04-26 22:52 | 35.17297 | -82.79336 | 3659 ft | 99 kts | 325° |
| 2026-04-26 22:53 | 35.17608 | -82.79995 | 3520 ft | 91 kts | 269° |
| 2026-04-26 22:53 | 35.17302 | -82.80563 | 3345 ft | 78 kts | 197° |
| 2026-04-26 22:53 | 35.16716 | -82.80727 | 2946 ft | 93 kts | 176° |
| 2026-04-26 22:53 | 35.16067 | -82.80748 | 2625 ft | 96 kts | 170° |
| 2026-04-26 22:54 | 35.15390 | -82.80595 | 2227 ft | 99 kts | 164° |
| 2026-04-26 22:54 | 35.14812 | -82.80431 | 2204 ft | 68 kts | 155° |
| 2026-04-26 22:54 | 35.14613 | -82.80308 | 2281 ft | 0 kts | 92° |